Time;durP1;ratioP1;P1;durP2;ratioP2;P2;SDS_P1;SDS_P2;PMS_P1;PMS_P2;Temp;Humidity;BMP_temperature;BMP_pressure;BME280_temperature;BME280_humidity;BME280_pressure;Samples;Min_cycle;Max_cycle;Signal;HPM_P1;HPM_P2
2021/12/25 00:02:06;;;;;;;931.08;887.97;;;;;;;20.09;44.23;100326.84;5046084;28;20040;-87
2021/12/25 00:04:32;;;;;;;929.63;886.47;;;;;;;20.08;44.40;100325.25;5046486;28;20071;-85
2021/12/25 00:06:57;;;;;;;931.50;888.08;;;;;;;20.09;44.08;100337.03;5051438;28;20477;-86
2021/12/25 00:09:22;;;;;;;933.88;890.17;;;;;;;20.09;44.15;100337.03;5025128;28;20037;-87
2021/12/25 00:11:48;;;;;;;935.40;891.50;;;;;;;20.06;44.40;100327.50;5030024;28;20073;-86
2021/12/25 00:14:13;;;;;;;933.60;890.05;;;;;;;20.07;44.04;100328.31;5045006;28;20107;-88
2021/12/25 00:16:39;;;;;;;933.95;890.35;;;;;;;20.07;44.09;100329.09;5038946;28;20048;-87
2021/12/25 00:19:05;;;;;;;936.47;892.38;;;;;;;20.07;44.24;100322.81;5050777;28;20033;-87
2021/12/25 00:21:31;;;;;;;943.70;898.95;;;;;;;20.06;44.31;100318.47;5062688;28;20022;-86
2021/12/25 00:23:56;;;;;;;939.13;895.03;;;;;;;20.05;44.29;100314.91;5043827;28;20043;-87
2021/12/25 00:32:30;;;;;;;930.00;886.88;;;;;;;20.02;44.29;100314.72;5044833;28;19927;-86
2021/12/25 00:34:42;;;;;;;933.47;889.95;;;;;;;20.02;44.13;100320.22;5047432;28;20045;-85
2021/12/25 00:37:09;;;;;;;931.22;887.90;;;;;;;20.01;44.13;100315.88;5048109;28;20163;-85
2021/12/25 00:39:35;;;;;;;941.33;897.05;;;;;;;20.00;43.94;100314.22;5058679;28;20109;-86
2021/12/25 00:42:02;;;;;;;938.22;893.90;;;;;;;20.00;43.89;100314.22;5047135;28;20041;-85
2021/12/25 00:44:28;;;;;;;941.38;897.00;;;;;;;19.99;44.00;100316.16;5026196;28;20044;-84
2021/12/25 00:46:54;;;;;;;942.88;898.40;;;;;;;19.99;43.85;100310.69;5048199;28;20041;-89
2021/12/25 00:49:19;;;;;;;936.20;892.00;;;;;;;20.01;43.99;100316.66;5030928;28;20040;-85
2021/12/25 00:51:45;;;;;;;944.83;900.05;;;;;;;20.02;43.74;100321.03;5049597;28;20037;-88
2021/12/25 00:54:11;;;;;;;945.58;900.80;;;;;;;20.02;43.75;100318.28;5067411;28;20532;-86
2021/12/25 00:56:36;;;;;;;935.47;891.72;;;;;;;20.02;43.74;100312.78;5033301;28;20175;-86
2021/12/25 00:59:02;;;;;;;942.45;897.88;;;;;;;20.04;43.70;100317.97;5050526;28;20388;-85
2021/12/25 01:01:28;;;;;;;938.95;894.80;;;;;;;20.02;43.75;100315.53;5050700;28;20401;-85
2021/12/25 01:03:53;;;;;;;946.33;901.30;;;;;;;20.03;43.85;100321.81;5051502;28;20037;-86
2021/12/25 01:06:18;;;;;;;942.70;898.17;;;;;;;20.02;43.46;100314.72;5044310;28;20156;-85
2021/12/25 01:08:44;;;;;;;944.22;899.53;;;;;;;20.02;43.67;100320.22;5047879;28;20041;-86
2021/12/25 01:11:10;;;;;;;935.50;891.55;;;;;;;20.02;43.73;100325.69;5032909;28;20142;-86
2021/12/25 01:13:40;;;;;;;944.72;899.97;;;;;;;20.00;43.84;100326.00;5051039;28;20033;-85
2021/12/25 01:32:35;;;;;;;934.15;890.53;;;;;;;19.95;43.61;100303.41;5036212;28;20039;-83
2021/12/25 01:47:49;;;;;;;939.42;895.28;;;;;;;19.90;43.01;100304.34;5034321;28;20478;-87
2021/12/25 01:50:18;;;;;;;944.60;899.83;;;;;;;19.88;42.93;100299.19;5038107;28;20040;-86
2021/12/25 01:52:44;;;;;;;944.03;899.17;;;;;;;19.89;42.69;100297.25;5055157;28;20472;-86
2021/12/25 01:55:15;;;;;;;949.53;904.45;;;;;;;19.88;42.96;100290.97;5046633;28;20029;-86
2021/12/25 01:57:41;;;;;;;948.20;903.10;;;;;;;19.89;43.02;100303.56;5049917;28;20415;-86
2021/12/25 02:00:15;;;;;;;943.03;898.50;;;;;;;19.90;42.86;100309.84;5029488;28;20030;-86
2021/12/25 02:02:41;;;;;;;945.38;900.53;;;;;;;19.89;42.99;100300.81;5045165;28;20043;-85
2021/12/25 02:05:06;;;;;;;949.95;904.55;;;;;;;19.89;42.82;100295.31;5047570;28;20493;-86
2021/12/25 02:07:32;;;;;;;947.17;902.22;;;;;;;19.89;42.86;100294.53;5054094;28;20528;-85
2021/12/25 02:09:57;;;;;;;950.20;904.90;;;;;;;19.89;42.87;100297.25;5038825;28;20462;-86
2021/12/25 02:12:23;;;;;;;953.47;907.50;;;;;;;19.91;42.71;100296.94;5050961;28;20060;-87
2021/12/25 02:14:49;;;;;;;956.42;910.15;;;;;;;19.90;42.79;100298.88;5035681;28;20128;-84
2021/12/25 02:19:56;;;;;;;955.80;909.50;;;;;;;19.88;43.07;100296.47;5052006;28;20482;-85
2021/12/25 02:22:27;;;;;;;952.15;906.28;;;;;;;19.88;42.73;100301.94;5037113;28;20151;-85
2021/12/25 02:24:52;;;;;;;954.05;907.92;;;;;;;19.88;42.51;100298.38;5043961;28;20067;-86
2021/12/25 02:27:18;;;;;;;964.80;917.40;;;;;;;19.88;42.53;100301.13;5049652;28;20454;-86
2021/12/25 02:29:43;;;;;;;966.47;918.47;;;;;;;19.88;42.76;100303.84;5041283;28;20033;-86
2021/12/25 02:32:09;;;;;;;968.08;920.15;;;;;;;19.88;42.42;100295.63;5052565;28;20119;-86
2021/12/25 02:34:34;;;;;;;959.35;912.25;;;;;;;19.87;42.34;100297.56;5067648;28;20115;-86
2021/12/25 02:37:00;;;;;;;962.95;915.55;;;;;;;19.88;42.22;100292.88;5054492;28;20044;-85
2021/12/25 02:39:26;;;;;;;960.63;913.53;;;;;;;19.87;42.22;100300.31;5020002;28;20059;-86
2021/12/25 02:41:51;;;;;;;970.92;922.55;;;;;;;19.86;42.22;100301.44;5037739;28;20127;-85
2021/12/25 02:44:17;;;;;;;964.22;916.53;;;;;;;19.85;42.39;100305.28;5052729;28;20072;-86
2021/12/25 02:46:42;;;;;;;964.72;916.88;;;;;;;19.85;42.15;100305.28;5052895;28;20028;-86
2021/12/25 02:49:14;;;;;;;967.35;919.25;;;;;;;19.85;41.99;100304.50;5035488;28;20033;-86
2021/12/25 02:51:46;;;;;;;957.95;911.20;;;;;;;19.84;42.43;100303.69;5054907;28;20041;-86
2021/12/25 02:54:12;;;;;;;969.58;921.40;;;;;;;19.83;42.37;100302.09;5049378;28;20104;-86
2021/12/25 02:56:38;;;;;;;970.97;922.65;;;;;;;19.83;42.32;100301.25;5064765;28;20076;-86
2021/12/25 02:59:04;;;;;;;965.80;917.88;;;;;;;19.82;42.23;100300.44;5053503;28;20473;-85
2021/12/25 03:01:29;;;;;;;964.15;916.50;;;;;;;19.82;42.21;100302.38;5034652;28;20068;-85
2021/12/25 03:03:54;;;;;;;964.60;917.05;;;;;;;19.82;42.51;100296.91;5048457;28;20103;-85
2021/12/25 03:06:21;;;;;;;965.67;917.88;;;;;;;19.81;42.18;100301.59;5050399;28;20495;-85
2021/12/25 03:08:46;;;;;;;969.10;920.70;;;;;;;19.80;42.55;100301.88;5051996;28;20078;-85
2021/12/25 03:11:13;;;;;;;977.15;927.63;;;;;;;19.80;42.28;100307.38;5035837;28;20116;-85
2021/12/25 03:13:56;;;;;;;975.10;926.22;;;;;;;19.78;42.15;100304.97;5049305;28;20035;-85
2021/12/25 03:16:21;;;;;;;970.35;921.75;;;;;;;19.79;42.05;100314.78;5040223;28;20049;-83
2021/12/25 03:18:51;;;;;;;979.17;929.33;;;;;;;19.78;42.12;100312.34;5041300;28;20052;-83
2021/12/25 03:21:17;;;;;;;974.00;924.92;;;;;;;19.78;42.43;100318.66;5041926;28;20551;-83
2021/12/25 03:23:43;;;;;;;968.90;920.53;;;;;;;19.78;42.40;100328.78;5053736;28;20122;-85
2021/12/25 03:26:09;;;;;;;968.33;919.92;;;;;;;19.77;42.27;100321.72;5035337;28;20037;-86
2021/12/25 03:28:39;;;;;;;972.13;923.28;;;;;;;19.76;42.16;100326.38;5032650;28;20458;-86
2021/12/25 03:31:15;;;;;;;968.50;920.15;;;;;;;19.75;41.88;100324.75;5034009;28;20025;-85
2021/12/25 03:33:41;;;;;;;958.25;911.17;;;;;;;19.74;42.30;100328.63;5060730;28;20033;-84
2021/12/25 03:36:06;;;;;;;969.60;921.00;;;;;;;19.73;42.19;100332.50;5052250;28;20393;-84
2021/12/25 03:38:32;;;;;;;974.90;925.80;;;;;;;19.72;42.41;100333.59;5045014;28;20462;-85
2021/12/25 03:41:00;;;;;;;968.55;920.15;;;;;;;19.72;42.07;100341.03;5042491;28;20094;-85
2021/12/25 03:43:26;;;;;;;972.05;923.40;;;;;;;19.71;42.10;100332.00;5059410;28;20075;-84
2021/12/25 03:45:52;;;;;;;973.75;924.60;;;;;;;19.71;41.98;100336.69;5035327;28;20090;-84
2021/12/25 03:59:07;;;;;;;960.75;913.33;;;;;;;19.66;42.17;100354.03;5033901;28;20111;-86
2021/12/25 04:06:46;;;;;;;968.17;920.10;;;;;;;19.64;42.15;100353.53;5058237;28;20059;-86
2021/12/25 04:09:28;;;;;;;963.95;916.33;;;;;;;19.62;42.11;100362.03;5052611;28;20029;-87
2021/12/25 04:11:55;;;;;;;971.33;922.80;;;;;;;19.62;42.01;100370.25;5051228;28;20052;-86
2021/12/25 04:14:21;;;;;;;968.40;920.25;;;;;;;19.61;42.15;100367.84;5067856;28;20033;-84
2021/12/25 04:16:47;;;;;;;969.63;921.20;;;;;;;19.60;42.04;100380.72;5034295;28;20546;-86
2021/12/25 04:19:13;;;;;;;972.30;923.45;;;;;;;19.60;41.98;100377.19;5035973;28;20030;-86
2021/12/25 04:21:47;;;;;;;969.65;921.00;;;;;;;19.58;42.11;100383.00;5035176;28;20037;-85
2021/12/25 04:24:13;;;;;;;969.83;921.25;;;;;;;19.59;42.36;100389.28;5039920;28;20484;-86
2021/12/25 04:26:42;;;;;;;961.97;914.25;;;;;;;19.58;41.98;100393.13;5048665;28;20037;-86
2021/12/25 04:29:31;;;;;;;964.33;916.38;;;;;;;19.58;42.18;100390.38;5041621;28;20033;-86
2021/12/25 05:04:12;;;;;;;975.45;926.05;;;;;;;19.46;42.18;100421.09;5045005;28;20075;-86
2021/12/25 05:06:38;;;;;;;975.00;925.38;;;;;;;19.45;42.23;100433.16;5047491;28;20057;-86
2021/12/25 05:09:03;;;;;;;973.40;924.20;;;;;;;19.45;41.97;100422.19;5062232;28;20123;-86
2021/12/25 05:11:29;;;;;;;976.05;926.05;;;;;;;19.43;42.06;100430.72;5038074;28;20036;-86
2021/12/25 05:13:54;;;;;;;974.72;925.13;;;;;;;19.44;41.86;100434.28;5035257;28;20029;-85
2021/12/25 05:16:21;;;;;;;971.70;922.72;;;;;;;19.43;42.05;100428.00;5041714;28;20466;-87
2021/12/25 05:18:47;;;;;;;971.60;922.55;;;;;;;19.43;42.20;100440.88;5041299;28;20052;-86
2021/12/25 05:21:13;;;;;;;975.45;925.97;;;;;;;19.42;41.83;100445.53;5067700;28;20384;-85
2021/12/25 05:23:40;;;;;;;974.03;924.78;;;;;;;19.41;42.12;100443.13;5034680;28;20033;-86
2021/12/25 05:26:05;;;;;;;969.35;920.72;;;;;;;19.40;42.30;100442.31;5040969;28;20030;-86
2021/12/25 05:28:40;;;;;;;974.38;925.20;;;;;;;19.40;42.14;100445.06;5044199;28;20127;-86
2021/12/25 05:31:07;;;;;;;973.75;923.95;;;;;;;19.39;42.09;100440.69;5050813;28;20461;-88
2021/12/25 05:33:33;;;;;;;972.33;923.17;;;;;;;19.39;42.08;100437.94;5050468;28;20466;-86
2021/12/25 05:35:59;;;;;;;977.47;927.67;;;;;;;19.38;41.92;100441.81;5027742;28;20128;-86
2021/12/25 05:38:25;;;;;;;973.88;924.58;;;;;;;19.37;41.89;100437.44;5048545;28;20059;-87
2021/12/25 05:40:50;;;;;;;977.70;927.97;;;;;;;19.37;41.83;100440.16;5053922;28;20041;-85
2021/12/25 05:43:16;;;;;;;970.42;921.55;;;;;;;19.37;41.90;100453.88;5054024;28;20037;-85
2021/12/25 05:45:42;;;;;;;978.13;928.40;;;;;;;19.36;42.11;100452.25;5054032;28;20091;-85
2021/12/25 05:48:08;;;;;;;975.95;926.28;;;;;;;19.35;42.21;100452.56;5034810;28;20040;-85
2021/12/25 05:50:34;;;;;;;984.85;934.05;;;;;;;19.33;41.94;100447.41;5041259;28;20030;-85
2021/12/25 05:52:59;;;;;;;974.13;924.70;;;;;;;19.33;41.75;100463.84;5038985;28;20036;-85
2021/12/25 05:55:25;;;;;;;987.75;936.50;;;;;;;19.32;41.73;100456.72;5069955;28;20064;-85
2021/12/25 05:57:51;;;;;;;982.28;931.75;;;;;;;19.33;41.85;100463.03;5046105;28;20080;-86
2021/12/25 06:00:18;;;;;;;979.15;928.95;;;;;;;19.31;42.02;100466.06;5054791;28;20469;-85
2021/12/25 06:02:45;;;;;;;985.17;933.90;;;;;;;19.31;42.06;100462.53;5052838;28;20044;-85
2021/12/25 06:05:10;;;;;;;983.05;932.05;;;;;;;19.30;41.88;100469.91;5051669;28;20033;-85
2021/12/25 06:07:36;;;;;;;976.38;926.53;;;;;;;19.29;42.07;100473.78;5040277;28;20054;-85
2021/12/25 06:10:06;;;;;;;978.72;928.50;;;;;;;19.29;42.15;100478.44;5034700;28;20037;-86
2021/12/25 06:12:32;;;;;;;975.95;925.92;;;;;;;19.28;41.77;100474.06;5053022;28;20037;-86
2021/12/25 06:15:01;;;;;;;987.90;936.38;;;;;;;19.27;41.94;100486.16;5053477;28;20037;-85
2021/12/25 06:17:27;;;;;;;985.15;934.17;;;;;;;19.27;41.82;100477.94;5055131;28;20082;-85
2021/12/25 06:19:52;;;;;;;983.28;932.45;;;;;;;19.25;41.97;100478.22;5054445;28;20029;-84
2021/12/25 06:22:18;;;;;;;981.03;930.42;;;;;;;19.24;41.87;100482.91;5053420;28;20427;-85
2021/12/25 06:24:49;;;;;;;978.22;928.00;;;;;;;19.24;42.17;100482.09;5035920;28;20033;-85
2021/12/25 06:27:16;;;;;;;985.50;934.40;;;;;;;19.23;41.72;100486.78;5053181;28;20029;-86
2021/12/25 06:29:41;;;;;;;983.30;932.40;;;;;;;19.23;41.89;100488.72;5045583;28;20492;-85
2021/12/25 06:32:07;;;;;;;991.08;938.83;;;;;;;19.21;41.96;100489.00;5039741;28;20038;-85
2021/12/25 06:34:32;;;;;;;986.15;934.58;;;;;;;19.20;42.01;100486.56;5049971;28;20044;-85
2021/12/25 06:36:58;;;;;;;986.10;934.65;;;;;;;19.20;41.70;100489.28;5047369;28;20040;-85
2021/12/25 06:39:23;;;;;;;989.63;937.92;;;;;;;19.19;41.97;100493.97;5036573;28;20436;-84
2021/12/25 06:41:49;;;;;;;983.47;932.55;;;;;;;19.19;41.85;100490.44;5052259;28;20033;-85
2021/12/25 06:44:14;;;;;;;981.72;931.10;;;;;;;19.18;41.94;100489.63;5037369;28;20370;-84
2021/12/25 06:46:40;;;;;;;980.42;929.58;;;;;;;19.16;41.98;100500.06;5039190;28;20069;-86
2021/12/25 06:49:05;;;;;;;981.90;931.15;;;;;;;19.16;42.01;100494.59;5049516;28;20039;-87
2021/12/25 06:51:34;;;;;;;985.35;934.30;;;;;;;19.15;41.92;100492.16;5017018;28;20452;-88
2021/12/25 06:54:01;;;;;;;988.33;936.70;;;;;;;19.16;41.82;100502.00;5050231;28;20413;-86
2021/12/25 06:56:26;;;;;;;983.72;932.53;;;;;;;19.14;42.13;100502.28;5042479;28;20047;-86
2021/12/25 06:58:51;;;;;;;986.83;935.42;;;;;;;19.14;41.80;100501.50;5050362;28;20447;-86
2021/12/25 07:01:17;;;;;;;993.35;940.72;;;;;;;19.13;41.79;100508.91;5053475;28;20033;-85
2021/12/25 07:03:42;;;;;;;989.70;937.78;;;;;;;19.13;41.76;100508.09;5042861;28;20538;-87
2021/12/25 07:06:09;;;;;;;994.63;941.83;;;;;;;19.11;41.77;100513.84;5043240;28;20486;-87
2021/12/25 07:08:35;;;;;;;988.10;936.30;;;;;;;19.11;41.71;100519.34;5032877;28;20040;-88
2021/12/25 07:11:00;;;;;;;990.88;938.70;;;;;;;19.10;41.54;100519.63;5047066;28;20033;-87
2021/12/25 07:13:26;;;;;;;993.95;941.30;;;;;;;19.09;41.56;100518.03;5052485;28;20040;-87
2021/12/25 07:15:51;;;;;;;986.95;935.25;;;;;;;19.08;41.51;100519.16;5035061;28;20396;-86
2021/12/25 07:18:17;;;;;;;995.63;942.55;;;;;;;19.08;41.81;100519.16;5049304;28;20040;-87
2021/12/25 07:20:45;;;;;;;982.33;931.25;;;;;;;19.06;41.71;100515.91;5039866;28;20037;-86
2021/12/25 07:23:11;;;;;;;999.50;945.47;;;;;;;19.06;41.65;100521.38;5050805;28;20033;-86
2021/12/25 07:25:36;;;;;;;994.15;940.90;;;;;;;19.05;41.48;100522.47;5045131;28;20491;-86
2021/12/25 07:28:01;;;;;;;993.78;940.97;;;;;;;19.02;41.50;100524.72;5051718;28;20043;-86
2021/12/25 07:30:27;;;;;;;998.42;944.70;;;;;;;19.03;41.26;100523.59;5051568;28;20036;-86
2021/12/25 07:32:52;;;;;;;999.80;945.85;;;;;;;19.02;41.22;100532.94;5047441;28;20115;-85
2021/12/25 07:35:18;;;;;;;1001.45;947.33;;;;;;;19.01;41.25;100533.22;5048105;28;20049;-85
2021/12/25 07:37:43;;;;;;;1001.17;946.95;;;;;;;18.99;41.48;100536.25;5031985;28;20029;-85
2021/12/25 07:40:09;;;;;;;997.38;943.50;;;;;;;19.00;41.36;100545.31;5046023;28;20039;-84
2021/12/25 07:42:35;;;;;;;998.10;944.17;;;;;;;18.99;41.61;100541.75;5037230;28;20030;-85
2021/12/25 07:45:05;;;;;;;1011.88;955.83;;;;;;;18.98;41.39;100545.59;5066168;28;20466;-84
2021/12/25 07:47:33;;;;;;;999.65;945.50;;;;;;;18.97;41.31;100546.69;5038366;28;20038;-84
2021/12/25 07:49:59;;;;;;;997.97;943.83;;;;;;;18.97;41.38;100551.38;5064127;28;20029;-86
2021/12/25 07:52:26;;;;;;;1004.08;948.83;;;;;;;18.96;41.31;100547.03;5052241;28;20047;-86
2021/12/25 07:54:52;;;;;;;1006.85;950.97;;;;;;;18.95;41.08;100557.16;5052658;28;20529;-85
2021/12/25 07:57:17;;;;;;;1006.28;950.33;;;;;;;18.95;41.29;100554.44;5043430;28;20116;-86
2021/12/25 07:59:43;;;;;;;346.63;333.38;;;;;;;18.95;41.39;100568.13;5036646;28;20037;-86
2021/12/25 08:02:08;;;;;;;610.40;583.42;;;;;;;18.93;41.15;100555.84;5045244;28;20037;-87
2021/12/25 08:04:34;;;;;;;1015.75;958.97;;;;;;;18.92;41.15;100565.97;5037546;28;20043;-86
2021/12/25 08:06:59;;;;;;;1010.45;953.58;;;;;;;18.92;40.95;100557.75;5032430;28;20452;-87
2021/12/25 08:09:29;;;;;;;1015.70;957.65;;;;;;;18.91;41.01;100569.00;5038370;28;20040;-85
2021/12/25 08:11:59;;;;;;;1014.65;956.88;;;;;;;18.91;40.95;100579.97;5032042;28;20065;-87
2021/12/25 08:14:25;;;;;;;1020.47;962.63;;;;;;;18.89;41.07;100577.53;5056964;28;20034;-87
2021/12/25 08:16:56;;;;;;;1016.97;958.75;;;;;;;18.89;40.87;100579.44;5053888;28;20398;-86
2021/12/25 08:19:22;;;;;;;1005.78;949.50;;;;;;;18.89;41.01;100584.91;5043495;28;20029;-86
2021/12/25 08:21:48;;;;;;;1016.45;958.35;;;;;;;18.87;41.13;100587.94;5046301;28;20064;-86
2021/12/25 08:24:14;;;;;;;1017.53;959.30;;;;;;;18.87;40.86;100589.88;5057098;28;20083;-86
2021/12/25 08:26:40;;;;;;;1015.58;958.30;;;;;;;18.86;41.12;100596.47;5049514;28;20034;-86
2021/12/25 08:29:05;;;;;;;1011.85;954.47;;;;;;;18.85;40.97;100592.94;5052357;28;20037;-86
2021/12/25 08:31:31;;;;;;;1009.95;952.85;;;;;;;18.84;40.86;100591.28;5021272;28;20458;-87
2021/12/25 08:33:56;;;;;;;1012.97;955.67;;;;;;;18.83;41.00;100595.16;5038302;28;20373;-86
2021/12/25 08:36:21;;;;;;;1005.88;949.55;;;;;;;18.83;40.83;100600.63;5050855;28;20036;-86
2021/12/25 08:38:47;;;;;;;1014.78;957.25;;;;;;;18.82;41.09;100596.25;5051306;28;20040;-86
2021/12/25 08:41:12;;;;;;;1008.55;952.10;;;;;;;18.81;41.08;100609.13;5067529;28;20490;-86
2021/12/25 08:43:46;;;;;;;1005.83;949.53;;;;;;;18.80;40.80;100598.50;5050500;28;20028;-84
2021/12/25 08:46:17;;;;;;;1006.95;950.85;;;;;;;18.79;40.76;100608.63;5050384;28;20041;-85
2021/12/25 08:48:43;;;;;;;1002.72;947.33;;;;;;;18.78;40.95;100607.00;5050860;28;20029;-86
2021/12/25 08:51:10;;;;;;;1008.13;951.28;;;;;;;18.78;40.90;100609.75;5067823;28;20393;-87
2021/12/25 08:53:35;;;;;;;1016.75;958.25;;;;;;;18.78;40.94;100611.66;5061315;28;20037;-83
2021/12/25 08:56:01;;;;;;;1010.22;953.53;;;;;;;18.77;41.06;100610.88;5036049;28;20049;-87
2021/12/25 08:58:30;;;;;;;359.48;345.85;;;;;;;18.77;40.67;100615.50;5045577;28;20060;-86
2021/12/25 09:00:57;;;;;;;616.22;587.20;;;;;;;18.76;40.74;100622.91;5055919;28;20060;-86
2021/12/25 09:03:26;;;;;;;998.20;943.53;;;;;;;18.76;40.87;100613.88;5055899;28;20124;-88
2021/12/25 09:05:57;;;;;;;1006.97;950.90;;;;;;;18.76;40.89;100617.44;5046700;28;20068;-85
2021/12/25 09:08:23;;;;;;;1008.97;952.63;;;;;;;18.75;41.00;100621.28;5047213;28;20115;-89
2021/12/25 09:10:49;;;;;;;1013.95;956.92;;;;;;;18.76;40.85;100624.84;5037702;28;20029;-89
2021/12/25 09:13:14;;;;;;;1010.10;953.28;;;;;;;18.78;41.07;100630.81;5050347;28;20041;-86
2021/12/25 09:15:39;;;;;;;1010.03;953.33;;;;;;;18.80;40.81;100631.34;5042654;28;20366;-85
2021/12/25 09:18:05;;;;;;;1009.38;953.05;;;;;;;18.82;41.11;100631.81;5050673;28;20132;-84
2021/12/25 09:20:30;;;;;;;1006.40;950.28;;;;;;;18.87;40.64;100634.47;5044216;28;20469;-84
2021/12/25 09:22:57;;;;;;;1002.35;946.90;;;;;;;18.91;41.09;100637.44;5046893;28;20040;-85
2021/12/25 09:25:24;;;;;;;1009.13;952.78;;;;;;;18.93;41.15;100641.50;5049652;28;20059;-85
2021/12/25 09:27:50;;;;;;;1011.30;954.30;;;;;;;18.97;40.97;100642.50;5033182;28;20029;-86
2021/12/25 09:30:16;;;;;;;1009.08;952.53;;;;;;;19.01;41.31;100640.78;5035217;28;20524;-85
2021/12/25 09:32:41;;;;;;;1006.45;950.38;;;;;;;19.05;41.26;100643.75;5043878;28;20473;-85
2021/12/25 09:35:08;;;;;;;1012.67;955.83;;;;;;;19.10;41.30;100651.03;5044713;28;20108;-85
2021/12/25 09:37:33;;;;;;;1007.58;951.30;;;;;;;19.13;41.70;100650.47;5035061;28;20470;-85
2021/12/25 09:39:58;;;;;;;1011.97;955.08;;;;;;;19.16;41.47;100650.66;5044773;28;20083;-85
2021/12/25 09:42:25;;;;;;;1010.78;953.95;;;;;;;19.19;41.52;100649.25;5037272;28;20037;-86
2021/12/25 09:44:52;;;;;;;1009.58;952.92;;;;;;;19.23;41.84;100658.47;5038057;28;20469;-85
2021/12/25 09:47:18;;;;;;;1012.90;955.53;;;;;;;19.25;41.64;100656.22;5060874;28;20040;-85
2021/12/25 09:49:44;;;;;;;1019.30;961.47;;;;;;;19.28;41.94;100663.88;5050850;28;20389;-86
2021/12/25 09:52:09;;;;;;;1015.45;957.95;;;;;;;19.32;41.72;100666.78;5050210;28;20037;-86
2021/12/25 09:54:35;;;;;;;1012.45;955.45;;;;;;;19.35;42.12;100663.44;5033442;28;20033;-85
2021/12/25 09:57:00;;;;;;;1011.35;954.92;;;;;;;19.37;41.97;100669.44;5022421;28;20041;-85
2021/12/25 09:59:26;;;;;;;1016.33;959.10;;;;;;;19.39;42.11;100672.69;5041727;28;20069;-86
2021/12/25 10:01:54;;;;;;;1012.70;956.13;;;;;;;19.41;42.17;100664.97;5031005;28;20030;-86
2021/12/25 10:04:29;;;;;;;1004.47;949.75;;;;;;;19.42;42.16;100667.41;5031599;28;20060;-86
2021/12/25 10:06:55;;;;;;;1015.03;958.33;;;;;;;19.44;41.79;100670.66;5055570;28;20064;-85
2021/12/25 10:09:24;;;;;;;1005.08;949.85;;;;;;;19.45;41.86;100669.56;5058296;28;20041;-89
2021/12/25 10:11:59;;;;;;;;;;;;;;;19.46;41.91;100671.16;5032475;28;20122;-87
2021/12/25 10:14:25;;;;;;;1007.03;951.92;;;;;;;19.49;42.00;100674.41;5032718;28;19913;-87
2021/12/25 10:16:51;;;;;;;1009.13;953.40;;;;;;;19.49;41.89;100677.97;5033518;28;20037;-87
2021/12/25 10:19:20;;;;;;;1038.50;972.92;;;;;;;19.51;42.11;100683.16;5048219;28;20485;-85
2021/12/25 10:21:46;;;;;;;1016.72;959.85;;;;;;;19.52;42.04;100682.81;5031961;28;20036;-85
2021/12/25 10:24:29;;;;;;;1013.22;956.67;;;;;;;19.55;42.18;100689.63;5042623;28;20033;-86
2021/12/25 10:27:09;;;;;;;1017.45;960.58;;;;;;;19.56;42.15;100683.03;5035546;28;20048;-86
2021/12/25 10:29:35;;;;;;;1024.68;966.15;;;;;;;19.57;41.92;100690.94;5051364;28;20041;-85
2021/12/25 10:32:17;;;;;;;1023.90;965.50;;;;;;;19.59;42.04;100687.91;5042550;28;20041;-85
2021/12/25 10:34:44;;;;;;;1016.90;959.30;;;;;;;19.61;42.24;100704.88;5044062;28;20481;-85
2021/12/25 10:37:12;;;;;;;1022.72;964.42;;;;;;;19.62;41.96;100701.00;5049474;28;20060;-83
2021/12/25 10:39:38;;;;;;;974.20;913.05;;;;;;;19.63;42.20;100710.81;5062252;28;20060;-84
2021/12/25 10:42:14;;;;;;;991.53;927.97;;;;;;;19.64;42.40;100704.25;5053570;28;20033;-84
2021/12/25 10:44:44;;;;;;;983.42;920.90;;;;;;;19.66;42.05;100708.31;5053543;28;20075;-84
2021/12/25 10:47:20;;;;;;;1012.47;948.40;;;;;;;19.66;41.97;100712.97;5054198;28;20029;-84
2021/12/25 10:49:59;;;;;;;1018.05;960.55;;;;;;;19.67;42.44;100715.44;5056679;28;20112;-86
2021/12/25 10:52:33;;;;;;;998.28;934.40;;;;;;;19.68;42.09;100710.78;5047542;28;20084;-85
2021/12/25 10:55:02;;;;;;;971.20;910.80;;;;;;;19.69;42.24;100703.38;5053841;28;20021;-86
2021/12/25 10:57:40;;;;;;;;;;;;;;;19.68;42.41;100705.31;5040293;28;20537;-86
2021/12/25 11:00:14;;;;;;;1018.30;960.65;;;;;;;19.69;42.01;100698.69;5060364;28;20369;-85
2021/12/25 11:02:43;;;;;;;1018.90;961.22;;;;;;;19.69;42.26;100687.72;5052281;28;20087;-85
2021/12/25 11:05:43;;;;;;;1015.72;958.60;;;;;;;19.68;42.46;100680.66;5045354;28;20034;-85
2021/12/25 11:08:23;;;;;;;1016.13;958.80;;;;;;;19.69;42.32;100676.78;5049649;28;20116;-87
2021/12/25 11:10:53;;;;;;;1019.92;961.92;;;;;;;19.71;42.63;100671.00;5052475;28;20051;-90
2021/12/25 11:13:43;;;;;;;1015.67;958.78;;;;;;;19.72;42.96;100672.59;5051360;28;20377;-82
2021/12/25 11:16:12;;;;;;;975.05;913.72;;;;;;;19.72;43.38;100675.34;5068236;28;20036;-82
2021/12/25 11:19:11;;;;;;;1022.35;964.17;;;;;;;19.71;43.52;100669.06;5050126;28;20037;-83
2021/12/25 11:21:49;;;;;;;1017.65;959.97;;;;;;;19.71;43.08;100660.03;5042936;28;20040;-82
2021/12/25 11:24:17;;;;;;;1021.95;964.08;;;;;;;19.69;42.53;100665.00;5054266;28;20067;-82
2021/12/25 11:26:45;;;;;;;1018.92;961.42;;;;;;;19.66;42.29;100674.63;5049930;28;20063;-81
2021/12/25 11:29:14;;;;;;;1023.03;964.10;;;;;;;19.64;42.10;100679.59;5049818;28;20037;-83
2021/12/25 11:31:40;;;;;;;1019.78;961.95;;;;;;;19.62;41.91;100679.88;5036158;28;20029;-81
2021/12/25 11:34:09;;;;;;;1022.13;963.88;;;;;;;19.61;41.63;100677.47;5046833;28;20025;-83
2021/12/25 11:36:42;;;;;;;;;;;;;;;19.58;41.25;100683.53;5038992;28;20039;-83
2021/12/25 11:39:08;;;;;;;1015.55;958.63;;;;;;;19.56;40.99;100675.63;5046518;28;19913;-80
2021/12/25 11:41:36;;;;;;;1017.58;960.45;;;;;;;19.54;40.49;100685.28;5039976;28;20040;-81
2021/12/25 11:44:06;;;;;;;1019.30;961.42;;;;;;;19.54;40.67;100693.50;5047055;28;20037;-81
2021/12/25 11:46:44;;;;;;;1017.65;960.15;;;;;;;19.53;40.31;100692.69;5030477;28;20033;-82
2021/12/25 11:49:15;;;;;;;1018.53;961.00;;;;;;;19.51;40.31;100694.09;5047465;28;20029;-83
2021/12/25 11:51:44;;;;;;;1022.88;964.03;;;;;;;19.50;40.23;100692.47;5030711;28;20086;-83
2021/12/25 11:59:58;;;;;;;980.95;919.70;;;;;;;19.46;39.26;100684.88;5049837;28;20036;-82
2021/12/25 12:02:44;;;;;;;1012.80;947.20;;;;;;;19.46;39.38;100681.31;5049699;28;20024;-81
2021/12/25 12:05:36;;;;;;;1036.15;969.80;;;;;;;19.44;39.08;100678.06;5045438;28;20047;-82
2021/12/25 12:08:05;;;;;;;1026.05;967.17;;;;;;;19.43;39.22;100676.44;5048275;28;20045;-83
2021/12/25 12:10:45;;;;;;;;;;;;;;;19.41;38.91;100674.00;5048795;28;20036;-82
2021/12/25 12:13:22;;;;;;;1023.20;964.75;;;;;;;19.41;39.10;100667.72;5046754;28;19998;-81
2021/12/25 12:15:50;;;;;;;1020.20;962.28;;;;;;;19.39;39.05;100654.31;5053091;28;20055;-82
2021/12/25 12:18:31;;;;;;;1019.47;955.50;;;;;;;19.38;38.64;100639.00;5051360;28;20460;-83
2021/12/25 12:21:12;;;;;;;1020.22;960.70;;;;;;;19.38;38.91;100630.78;5041712;28;20470;-82
2021/12/25 12:24:22;;;;;;;1022.00;960.00;;;;;;;19.38;38.67;100632.72;5047867;28;20114;-82
2021/12/25 12:26:45;;;;;;;1013.22;955.80;;;;;;;19.37;38.56;100633.81;5048542;28;20053;-82
2021/12/25 12:29:11;;;;;;;;;;;;;;;19.34;38.35;100624.28;5061353;28;20393;-82